Lacota, Michigan
Current Conditions -  °F | °C
As of 9:15 AM on Thursday 23 Oct 2014 (Local Time) from KLWA Reporting Station
Haze Haze  
Wind Chill: 38°   Ceiling: Unl
Heat Index: 38°   Visibility: 2mi
Dew Point: 38°   Wind: 3mph
Humidity: 98%   Direction: 180°S
Pressure: 30.25"   Gusts: NA
Location:  42.41°N, 86.13°W
Report Text: KLWA 231315Z AUTO 18003KT 2SM BR CLR 04/03 A3025 RMK AO2 T00350032
Loading
Personal Weather Stations






























Interactive Weather Map
Tropical Storm Tracking
New forecast layout! Learn more

10-Day Weather Forecast

Advertisements
Track Severe Weather on mobile